^^
Datos históricos de la estación: Murcia-Puente Tocinos
Diario Informe para Diciembre 11, 2019 Unidades:  Métrico    Ingés   Ambas
Diario Semanal Mensual Anual
  Máxima: Mínima: Promedio:
Temperatura: 20 °C 9.6 °C 13.7 °C
Punto de rocio: 6.3 °C -0.9 °C 2.4 °C
Humedad: 58.9% 33% 47%
Velocidad viento: 27.4km/h 3.2km/h 10.8km/h
Racha viento: 51.8km/h - -
Viento- - SO
Presión: 1023.2 hPa 1016.9 hPa -
Precipitación: 0.0 mm    
 
 
Tabla de datos para Diciembre 11, 2019
Hora Temperatura Punto de rocio Presión Viento Velocidad viento Racha viento Humedad Intensidad lluvia(por hora) Nubes
00:04 12.2 °C 3.6 °C 1022.3 hPa SSO 12.4 km/h 19.3 km/h 55.8% 0.0 mm
00:09 12.2 °C 3.6 °C 1022.3 hPa SSO 11.9 km/h 19.3 km/h 56% 0.0 mm
00:14 12 °C 3.6 °C 1022.1 hPa SSO 10.5 km/h 16.1 km/h 56.4% 0.0 mm
00:19 11.9 °C 3.6 °C 1022.1 hPa SSO 9.5 km/h 13 km/h 56.8% 0.0 mm
00:24 11.9 °C 3.4 °C 1022.3 hPa OSO 8.4 km/h 12.9 km/h 56% 0.0 mm
00:29 11.9 °C 3.4 °C 1022.3 hPa SO 7.6 km/h 13 km/h 56% 0.0 mm
00:34 11.9 °C 3.4 °C 1022.3 hPa OSO 8 km/h 12.9 km/h 56% 0.0 mm
00:39 11.7 °C 3.5 °C 1022.3 hPa OSO 8.4 km/h 12.2 km/h 57% 0.0 mm
00:44 11.3 °C 3.4 °C 1022.1 hPa SO 7.9 km/h 14.8 km/h 58.4% 0.0 mm
00:49 11.2 °C 3.4 °C 1022.1 hPa SSO 7.6 km/h 18.5 km/h 58.9% 0.0 mm
00:54 11.3 °C 3.2 °C 1022.1 hPa SO 8.2 km/h 19.3 km/h 57.4% 0.0 mm
00:59 11.6 °C 3.2 °C 1022.0 hPa SO 8.7 km/h 20.9 km/h 56.1% 0.0 mm
01:04 11.7 °C 3.2 °C 1022.0 hPa SO 10.7 km/h 20.9 km/h 56% 0.0 mm
01:09 11.6 °C 3.1 °C 1022.0 hPa SSO 11.9 km/h 22.2 km/h 56% 0.0 mm
01:14 11.4 °C 3 °C 1021.9 hPa SSO 11.9 km/h 22.5 km/h 56% 0.0 mm
01:19 11.4 °C 2.9 °C 1021.9 hPa SSO 11.9 km/h 20.9 km/h 56% 0.0 mm
01:24 11.3 °C 2.9 °C 1021.9 hPa SSO 12.5 km/h 20.9 km/h 56% 0.0 mm
01:29 11.3 °C 2.8 °C 1021.7 hPa Sur 13 km/h 16.1 km/h 56% 0.0 mm
01:34 11.3 °C 2.7 °C 1021.7 hPa SSO 11.9 km/h 18.5 km/h 55.5% 0.0 mm
01:39 11.6 °C 2.6 °C 1021.7 hPa SSO 11.1 km/h 19.3 km/h 54% 0.0 mm
01:44 11.7 °C 2.4 °C 1021.6 hPa SSO 11.1 km/h 19.3 km/h 53% 0.0 mm
01:49 11.7 °C 2.4 °C 1021.6 hPa SO 11.1 km/h 19.3 km/h 53% 0.0 mm
01:54 11.7 °C 2.2 °C 1021.6 hPa SO 10.6 km/h 19.3 km/h 52.2% 0.0 mm
01:59 11.8 °C 2.2 °C 1021.5 hPa SSO 10.3 km/h 16.7 km/h 52% 0.0 mm
02:04 11.8 °C 2.3 °C 1021.5 hPa SSO 10.1 km/h 16.1 km/h 52% 0.0 mm
02:09 11.8 °C 2.2 °C 1021.5 hPa SSO 10 km/h 13.7 km/h 51.9% 0.0 mm
02:14 11.7 °C 2.1 °C 1021.5 hPa SSO 9 km/h 14.5 km/h 52% 0.0 mm
02:19 11.6 °C 2 °C 1021.5 hPa SSO 8.4 km/h 13 km/h 52% 0.0 mm
02:24 11.4 °C 1.9 °C 1021.5 hPa SSO 8.5 km/h 14.8 km/h 52% 0.0 mm
02:29 11.5 °C 1.9 °C 1021.2 hPa SO 8.7 km/h 14.5 km/h 51.8% 0.0 mm
02:34 11.6 °C 1.8 °C 1021.2 hPa SSO 9.2 km/h 13 km/h 51% 0.0 mm
02:39 11.6 °C 1.6 °C 1021.2 hPa SSO 9.5 km/h 12.9 km/h 50.4% 0.0 mm
02:44 11.7 °C 1.6 °C 1021.1 hPa SSO 8.8 km/h 15.6 km/h 50% 0.0 mm
02:49 11.7 °C 1.4 °C 1021.1 hPa SSO 8.4 km/h 16.1 km/h 49.1% 0.0 mm
02:54 11.8 °C 1.4 °C 1021.1 hPa SSO 8.6 km/h 14.5 km/h 49% 0.0 mm
02:59 11.8 °C 1.3 °C 1021.1 hPa SSO 8.7 km/h 14.8 km/h 48.6% 0.0 mm
03:04 11.8 °C 1.1 °C 1021.1 hPa SSO 9.2 km/h 14.5 km/h 48% 0.0 mm
03:09 11.8 °C 1.1 °C 1021.2 hPa SO 9.5 km/h 13 km/h 48% 0.0 mm
03:14 11.8 °C 1.1 °C 1021.2 hPa SO 9 km/h 13 km/h 48% 0.0 mm
03:19 11.7 °C 1.1 °C 1021.2 hPa SO 8.7 km/h 12.9 km/h 48.2% 0.0 mm
03:24 11.5 °C 1.2 °C 1021.2 hPa SO 7.4 km/h 10 km/h 49% 0.0 mm
03:29 11.4 °C 1.1 °C 1021.1 hPa SO 6.5 km/h 13 km/h 49% 0.0 mm
03:34 11.4 °C 0.9 °C 1021.1 hPa SSO 7.1 km/h 16.7 km/h 48.3% 0.0 mm
03:39 11.5 °C 0.8 °C 1021.1 hPa SSO 7.6 km/h 16.1 km/h 47.8% 0.0 mm
03:44 11.6 °C 0.6 °C 1021.0 hPa SSO 9 km/h 16.7 km/h 47% 0.0 mm
03:49 11.6 °C 0.7 °C 1021.0 hPa Sur 10 km/h 16.1 km/h 47% 0.0 mm
03:54 11.5 °C 0.6 °C 1021.1 hPa Sur 9.7 km/h 14.5 km/h 47% 0.0 mm
03:59 11.3 °C 0.4 °C 1021.1 hPa SSO 9.5 km/h 16.7 km/h 47% 0.0 mm
04:04 11.2 °C 0.4 °C 1021.1 hPa SO 9.5 km/h 16.1 km/h 47.4% 0.0 mm
04:09 11.2 °C 0.3 °C 1021.1 hPa SSO 9.5 km/h 12.9 km/h 47% 0.0 mm
04:14 11.2 °C 0.3 °C 1021.1 hPa SO 8.4 km/h 11.3 km/h 47% 0.0 mm
04:19 11.1 °C 0.2 °C 1021.1 hPa SSO 7.6 km/h 13 km/h 47% 0.0 mm
04:24 11.1 °C 0.2 °C 1021.1 hPa Sur 7.6 km/h 16.7 km/h 47% 0.0 mm
04:29 11.1 °C 0.2 °C 1020.9 hPa SSO 7.6 km/h 16.1 km/h 47% 0.0 mm
04:34 11.1 °C 0.2 °C 1020.9 hPa SSO 9.1 km/h 15.6 km/h 47% 0.0 mm
04:39 11.1 °C 0.2 °C 1020.9 hPa SO 10.3 km/h 16.1 km/h 47% 0.0 mm
04:44 11.1 °C 0.2 °C 1020.9 hPa OSO 8.7 km/h 12.9 km/h 47% 0.0 mm
04:49 11 °C 0.1 °C 1020.9 hPa OSO 7.6 km/h 12.9 km/h 47% 0.0 mm
04:54 10.9 °C 0 °C 1020.9 hPa SSO 5.9 km/h 11.1 km/h 47% 0.0 mm
04:59 10.9 °C -0.1 °C 1020.9 hPa Sur 4.7 km/h 11.3 km/h 46.5% 0.0 mm
05:04 10.9 °C 0 °C 1020.9 hPa SO 4.8 km/h 11.3 km/h 47.1% 0.0 mm
05:09 10.8 °C 0.6 °C 1020.9 hPa Oeste 5 km/h 8 km/h 49.5% 0.0 mm
05:14 10.4 °C 0.3 °C 1020.8 hPa SO 3.9 km/h 9.5 km/h 49.8% 0.0 mm
05:19 10.2 °C 0.2 °C 1020.8 hPa SSO 3.2 km/h 13.7 km/h 50% 0.0 mm
05:24 10.2 °C 0.2 °C 1020.8 hPa SSO 5.1 km/h 16.7 km/h 49.9% 0.0 mm
05:29 10.2 °C -0.1 °C 1020.5 hPa SSO 6.5 km/h 16.1 km/h 49% 0.0 mm
05:34 10.3 °C 0.1 °C 1020.5 hPa SSO 7.8 km/h 14.8 km/h 49% 0.0 mm
05:39 10.3 °C 0 °C 1020.5 hPa SSO 8.7 km/h 17.2 km/h 48.8% 0.0 mm
05:44 10.3 °C -0.1 °C 1020.4 hPa SO 8.7 km/h 17.7 km/h 48.5% 0.0 mm
05:49 10.3 °C -0.2 °C 1020.4 hPa SO 8.7 km/h 14.8 km/h 48% 0.0 mm
05:54 10.4 °C -0.2 °C 1020.4 hPa SO 8.5 km/h 14.5 km/h 48% 0.0 mm
05:59 10.4 °C -0.3 °C 1020.3 hPa SO 8.4 km/h 13.7 km/h 47.3% 0.0 mm
06:04 10.6 °C -0.3 °C 1020.3 hPa SSO 8.4 km/h 18.5 km/h 47% 0.0 mm
06:09 10.6 °C -0.5 °C 1020.4 hPa SO 8.4 km/h 19.3 km/h 46.3% 0.0 mm
06:14 10.6 °C -0.5 °C 1020.4 hPa SSO 9 km/h 16.1 km/h 46.3% 0.0 mm
06:19 10.7 °C -0.5 °C 1020.4 hPa SSO 9.5 km/h 16.7 km/h 46% 0.0 mm
06:24 10.7 °C -0.4 °C 1020.4 hPa SSO 10.4 km/h 17.2 km/h 46% 0.0 mm
06:29 10.7 °C -0.4 °C 1020.3 hPa SSO 11.1 km/h 18.5 km/h 46% 0.0 mm
06:34 10.7 °C -0.4 °C 1020.3 hPa SSO 11.1 km/h 19.3 km/h 46% 0.0 mm
06:39 10.7 °C -0.4 °C 1020.4 hPa SSO 11.1 km/h 14.8 km/h 46% 0.0 mm
06:44 10.6 °C -0.6 °C 1020.4 hPa SSO 10.4 km/h 15.6 km/h 45.9% 0.0 mm
06:49 10.7 °C -0.7 °C 1020.4 hPa SSO 10 km/h 16.1 km/h 45.3% 0.0 mm
06:54 10.7 °C -0.8 °C 1020.4 hPa SO 9.2 km/h 11.3 km/h 45.1% 0.0 mm
06:59 10.6 °C -0.7 °C 1020.4 hPa SO 8.7 km/h 13 km/h 45.4% 0.0 mm
07:04 10.6 °C -0.8 °C 1020.4 hPa SO 8 km/h 12.9 km/h 45% 0.0 mm
07:09 10.6 °C -0.8 °C 1020.4 hPa SO 7.6 km/h 11.3 km/h 45% 0.0 mm
07:14 10.5 °C -0.9 °C 1020.4 hPa SO 6.9 km/h 9.7 km/h 45% 0.0 mm
07:19 10.4 °C -0.8 °C 1020.4 hPa SO 6.5 km/h 8.4 km/h 45.8% 0.0 mm
07:24 10.3 °C -0.8 °C 1020.5 hPa SO 5.7 km/h 9.3 km/h 46% 0.0 mm
07:29 10.3 °C -0.7 °C 1020.5 hPa OSO 5 km/h 9.7 km/h 46.7% 0.0 mm
07:34 10 °C -0.5 °C 1020.5 hPa OSO 5.5 km/h 9.7 km/h 48.2% 0.0 mm
07:39 9.7 °C -0.5 °C 1020.5 hPa OSO 5.8 km/h 10 km/h 49% 0.0 mm
07:44 9.6 °C -0.4 °C 1020.5 hPa SO 6.2 km/h 11.9 km/h 49.8% 0.0 mm
07:49 9.7 °C -0.5 °C 1020.5 hPa SO 6.5 km/h 13 km/h 49% 0.0 mm
07:54 9.8 °C -0.6 °C 1020.5 hPa SO 7.6 km/h 12.9 km/h 48.2% 0.0 mm
07:59 10 °C -0.5 °C 1020.4 hPa SO 8.4 km/h 13 km/h 48% 0.0 mm
08:04 10.2 °C -0.4 °C 1020.4 hPa SO 8.6 km/h 12.9 km/h 48% 0.0 mm
08:09 10.2 °C -0.3 °C 1020.4 hPa SO 8.7 km/h 14.8 km/h 48% 0.0 mm
08:14 10.2 °C -0.3 °C 1020.4 hPa SO 8.5 km/h 14.5 km/h 48% 0.0 mm
08:19 10.2 °C -0.3 °C 1020.4 hPa SO 8.4 km/h 11.9 km/h 48% 0.0 mm
08:24 10.2 °C -0.1 °C 1020.4 hPa OSO 7.9 km/h 11.3 km/h 48.7% 0.0 mm
08:29 10 °C 0 °C 1020.2 hPa OSO 7.6 km/h 13 km/h 49.8% 0.0 mm
08:34 9.7 °C 0 °C 1020.2 hPa SO 7.6 km/h 13 km/h 50.7% 0.0 mm
08:39 9.6 °C 0.1 °C 1020.4 hPa SO 7.6 km/h 14.8 km/h 51.5% 0.0 mm
08:44 9.7 °C 0.3 °C 1020.4 hPa SO 8 km/h 14.5 km/h 51.9% 0.0 mm
08:49 9.8 °C 0.3 °C 1020.4 hPa SO 8.4 km/h 14.5 km/h 51.9% 0.0 mm
08:54 9.8 °C 0.2 °C 1020.4 hPa SO 7.3 km/h 9.7 km/h 51% 0.0 mm
08:59 9.9 °C 0.4 °C 1020.3 hPa SO 6.5 km/h 8 km/h 51.3% 0.0 mm
09:04 10 °C 0.4 °C 1020.3 hPa SSO 5.4 km/h 9.3 km/h 51.3% 0.0 mm
09:09 10.2 °C 0.1 °C 1020.4 hPa SO 4.7 km/h 9.7 km/h 49.8% 0.0 mm
09:14 10.4 °C 0.1 °C 1020.4 hPa SSO 4.7 km/h 9.7 km/h 49% 0.0 mm
09:19 10.7 °C 0.4 °C 1020.4 hPa Sur 4.7 km/h 9.5 km/h 49% 0.0 mm
09:24 10.9 °C 0.6 °C 1020.4 hPa Sur 4.8 km/h 12.2 km/h 49% 0.0 mm
09:29 10.8 °C 0.8 °C 1020.3 hPa Sur 5 km/h 13 km/h 50.1% 0.0 mm
09:34 10.6 °C 1.1 °C 1020.3 hPa Sur 6.9 km/h 12.9 km/h 51.7% 0.0 mm
09:39 10.4 °C 1.4 °C 1020.3 hPa SSE 8.4 km/h 11.3 km/h 53.5% 0.0 mm
09:44 10.2 °C 1.5 °C 1020.3 hPa SSO 7.3 km/h 11.3 km/h 55% 0.0 mm
09:49 10 °C 1.4 °C 1020.3 hPa SO 6.5 km/h 11.3 km/h 54.8% 0.0 mm
09:54 10.1 °C 1.1 °C 1020.5 hPa SO 6.7 km/h 11.3 km/h 53.3% 0.0 mm
09:59 10.3 °C 1 °C 1020.5 hPa SO 6.9 km/h 13.7 km/h 52.5% 0.0 mm
10:04 10.4 °C 0.9 °C 1020.5 hPa SSO 7.3 km/h 14.5 km/h 51.5% 0.0 mm
10:09 10.6 °C 0.7 °C 1020.5 hPa SSO 7.6 km/h 13 km/h 50.4% 0.0 mm
10:14 10.8 °C 0.7 °C 1020.5 hPa Sur 8 km/h 13 km/h 50% 0.0 mm
10:19 10.8 °C 0.6 °C 1020.5 hPa SSO 8.4 km/h 13 km/h 49.4% 0.0 mm
10:24 10.8 °C 0.7 °C 1020.7 hPa SSO 8.4 km/h 13.7 km/h 49.4% 0.0 mm
10:29 10.9 °C 0.8 °C 1020.7 hPa SSO 8.4 km/h 14.5 km/h 49.9% 0.0 mm
10:34 10.9 °C 0.9 °C 1020.7 hPa SSO 7.9 km/h 11.1 km/h 49.8% 0.0 mm
10:39 11.1 °C 1 °C 1020.7 hPa SSO 7.6 km/h 13 km/h 49.5% 0.0 mm
10:44 11.4 °C 1.1 °C 1020.7 hPa SSO 7.2 km/h 13 km/h 49.1% 0.0 mm
10:49 11.7 °C 1 °C 1020.7 hPa SSO 6.9 km/h 13.7 km/h 47.8% 0.0 mm
10:54 12 °C 1.1 °C 1020.7 hPa SSO 7.8 km/h 14.5 km/h 47.2% 0.0 mm
10:59 12.2 °C 1.3 °C 1020.4 hPa SSO 8.4 km/h 14.5 km/h 47.5% 0.0 mm
11:04 12.3 °C 1.5 °C 1020.4 hPa SO 7.9 km/h 13 km/h 47.5% 0.0 mm
11:09 12.5 °C 1.5 °C 1020.4 hPa SO 7.6 km/h 12.9 km/h 47% 0.0 mm
11:14 12.7 °C 1.6 °C 1020.4 hPa SO 7.2 km/h 11.3 km/h 47% 0.0 mm
11:19 12.8 °C 1.7 °C 1020.4 hPa SO 6.9 km/h 11.1 km/h 46.7% 0.0 mm
11:24 13 °C 1.4 °C 1020.4 hPa SO 6.3 km/h 11.3 km/h 45.5% 0.0 mm
11:29 13.2 °C 1.5 °C 1020.3 hPa SSO 5.8 km/h 11.3 km/h 44.9% 0.0 mm
11:34 13.5 °C 1.2 °C 1020.3 hPa SSO 6.2 km/h 9.7 km/h 43.1% 0.0 mm
11:39 13.8 °C 1.1 °C 1020.3 hPa SSO 6.5 km/h 10 km/h 42% 0.0 mm
11:44 14.1 °C 1 °C 1020.0 hPa SO 6.5 km/h 12.2 km/h 40.8% 0.0 mm
11:49 14.2 °C 0.7 °C 1020.0 hPa SO 6.5 km/h 13 km/h 39.7% 0.0 mm
11:54 14.3 °C 1.1 °C 1020.0 hPa OSO 6.7 km/h 12.9 km/h 40.6% 0.0 mm
11:59 14.5 °C 1.1 °C 1019.8 hPa SO 6.9 km/h 13 km/h 40.2% 0.0 mm
12:04 14.7 °C 1.4 °C 1019.8 hPa SSE 6.6 km/h 12.9 km/h 40.6% 0.0 mm
12:09 15.1 °C 0.8 °C 1019.8 hPa SSO 6.5 km/h 11.3 km/h 37.8% 0.0 mm
12:14 15.3 °C 0.6 °C 1019.3 hPa SSO 6.7 km/h 11.3 km/h 36.6% 0.0 mm
12:19 15.6 °C 0.6 °C 1019.3 hPa Sur 6.9 km/h 13.7 km/h 36.2% 0.0 mm
12:24 15.8 °C 0.6 °C 1019.3 hPa SO 7.3 km/h 14.5 km/h 35.7% 0.0 mm
12:29 16.1 °C 0.2 °C 1019.1 hPa SSO 7.6 km/h 13 km/h 34.2% 0.0 mm
12:34 16.2 °C 0 °C 1019.1 hPa OSO 6.9 km/h 12.9 km/h 33.3% 0.0 mm
12:39 16.4 °C 0.2 °C 1019.1 hPa SO 6.5 km/h 14 km/h 33.3% 0.0 mm
12:44 16.4 °C 0.3 °C 1018.6 hPa OSO 6.7 km/h 14.8 km/h 33.5% 0.0 mm
12:49 16.6 °C 0.6 °C 1018.6 hPa SSO 6.9 km/h 14.5 km/h 33.9% 0.0 mm
12:54 16.8 °C 0.8 °C 1018.6 hPa SO 6.3 km/h 12.9 km/h 33.8% 0.0 mm
12:59 17.1 °C 0.9 °C 1018.4 hPa SSO 5.8 km/h 11.1 km/h 33.7% 0.0 mm
13:04 17.2 °C 0.8 °C 1018.4 hPa SO 6.2 km/h 13 km/h 33% 0.0 mm
13:09 17.3 °C 0.8 °C 1018.4 hPa SO 6.5 km/h 13 km/h 33% 0.0 mm
13:14 17.4 °C 1.3 °C 1018.2 hPa SSO 6.1 km/h 12.9 km/h 33.9% 0.0 mm
13:19 17.5 °C 1.2 °C 1018.2 hPa SSO 5.8 km/h 11.3 km/h 33.4% 0.0 mm
13:24 17.6 °C 1.4 °C 1018.2 hPa SSO 6.4 km/h 13 km/h 33.7% 0.0 mm
13:29 17.6 °C 1.5 °C 1018.0 hPa SSO 6.9 km/h 13 km/h 34% 0.0 mm
13:34 17.6 °C 1.6 °C 1018.0 hPa Sur 7.8 km/h 12.9 km/h 34.1% 0.0 mm
13:39 17.6 °C 1.7 °C 1018.0 hPa Sur 8.4 km/h 13.7 km/h 34.4% 0.0 mm
13:44 17.8 °C 1.9 °C 1018.0 hPa SSO 8.4 km/h 14.8 km/h 34.5% 0.0 mm
13:49 17.9 °C 2.1 °C 1018.0 hPa SSO 8.4 km/h 14.5 km/h 34.8% 0.0 mm
13:54 18.1 °C 2.3 °C 1018.0 hPa Sur 7.5 km/h 14.8 km/h 35% 0.0 mm
13:59 18.1 °C 2.3 °C 1017.7 hPa SSE 6.9 km/h 14.8 km/h 35% 0.0 mm
14:04 18.2 °C 2.5 °C 1017.7 hPa Sur 8.8 km/h 14.8 km/h 35% 0.0 mm
14:09 18.3 °C 2.6 °C 1017.7 hPa SSE 10 km/h 15.6 km/h 35% 0.0 mm
14:14 18.3 °C 2.6 °C 1017.3 hPa Sur 9.7 km/h 16.1 km/h 35% 0.0 mm
14:19 18.5 °C 2.3 °C 1017.3 hPa Sur 9.5 km/h 13 km/h 34% 0.0 mm
14:24 18.7 °C 2.5 °C 1017.3 hPa Sur 9 km/h 16.1 km/h 34% 0.0 mm
14:29 18.8 °C 2.3 °C 1017.0 hPa Sur 8.7 km/h 16.7 km/h 33.3% 0.0 mm
14:34 19 °C 2.6 °C 1017.0 hPa SSO 9.4 km/h 16.1 km/h 33.5% 0.0 mm
14:39 19.2 °C 2.9 °C 1017.0 hPa SSO 10 km/h 16.7 km/h 33.9% 0.0 mm
14:44 19.3 °C 2.7 °C 1017.0 hPa Sur 10 km/h 16.7 km/h 33.2% 0.0 mm
14:49 19.3 °C 2.7 °C 1017.0 hPa SSO 10 km/h 16.1 km/h 33.4% 0.0 mm
14:54 19.3 °C 2.7 °C 1017.0 hPa SSO 10.2 km/h 15.6 km/h 33% 0.0 mm
14:59 19.4 °C 2.7 °C 1017.0 hPa SSO 10.3 km/h 16.1 km/h 33% 0.0 mm
15:04 19.4 °C 2.7 °C 1017.0 hPa OSO 9.4 km/h 18.3 km/h 33% 0.0 mm
15:09 19.5 °C 3 °C 1017.1 hPa Oeste 8.7 km/h 22.5 km/h 33.5% 0.0 mm
15:14 19.7 °C 3.4 °C 1017.1 hPa OSO 10.5 km/h 33.3 km/h 34% 0.0 mm
15:19 20 °C 3.7 °C 1017.1 hPa Oeste 11.9 km/h 33.8 km/h 34% 0.0 mm
15:24 20 °C 3.8 °C 1017.2 hPa Oeste 13.4 km/h 42.6 km/h 34.3% 0.0 mm
15:29 19.9 °C 3.6 °C 1017.2 hPa ONO 14.8 km/h 42.6 km/h 34.1% 0.0 mm
15:34 19.8 °C 3.5 °C 1017.2 hPa ONO 20.6 km/h 41.8 km/h 34% 0.0 mm
15:39 19.8 °C 3.7 °C 1017.2 hPa Oeste 25.1 km/h 37 km/h 34.6% 0.0 mm
15:44 19.7 °C 3.8 °C 1017.2 hPa ONO 22.2 km/h 37 km/h 35% 0.0 mm
15:49 19.7 °C 3.8 °C 1017.2 hPa Oeste 20.1 km/h 35.4 km/h 35.1% 0.0 mm
15:54 19.7 °C 4.2 °C 1017.2 hPa OSO 18 km/h 37 km/h 36% 0.0 mm
15:59 19.7 °C 4.4 °C 1017.2 hPa OSO 16.4 km/h 37 km/h 36.3% 0.0 mm
16:04 19.7 °C 4.8 °C 1017.2 hPa Oeste 17.4 km/h 35.4 km/h 37.4% 0.0 mm
16:09 19.6 °C 4.9 °C 1017.2 hPa Oeste 18 km/h 27.8 km/h 38% 0.0 mm
16:14 19.4 °C 4.9 °C 1016.9 hPa Oeste 15.7 km/h 27.4 km/h 38.5% 0.0 mm
16:19 19.3 °C 5 °C 1016.9 hPa Oeste 14 km/h 22.5 km/h 39% 0.0 mm
16:24 19.2 °C 5.2 °C 1017.2 hPa Oeste 13 km/h 22.5 km/h 39.7% 0.0 mm
16:29 19.1 °C 5.2 °C 1017.2 hPa Oeste 12.2 km/h 22.5 km/h 40% 0.0 mm
16:34 19 °C 5.3 °C 1017.2 hPa ONO 10.6 km/h 14.8 km/h 40.7% 0.0 mm
16:39 18.9 °C 5.3 °C 1017.3 hPa ONO 9.5 km/h 14.8 km/h 41% 0.0 mm
16:44 18.8 °C 5.2 °C 1017.3 hPa ONO 8.8 km/h 14.8 km/h 41% 0.0 mm
16:49 18.6 °C 5.1 °C 1017.3 hPa ONO 8.4 km/h 22.5 km/h 41% 0.0 mm
16:54 18.6 °C 5 °C 1017.5 hPa ONO 10 km/h 22.5 km/h 40.9% 0.0 mm
16:59 18.5 °C 5 °C 1017.5 hPa Oeste 11.1 km/h 20.9 km/h 41% 0.0 mm
17:04 18.5 °C 5 °C 1017.5 hPa Oeste 11.8 km/h 25.9 km/h 41% 0.0 mm
17:09 18.6 °C 5.1 °C 1017.7 hPa Oeste 12.2 km/h 31.7 km/h 41% 0.0 mm
17:14 18.5 °C 5.3 °C 1017.7 hPa Oeste 12.7 km/h 32.2 km/h 41.8% 0.0 mm
17:19 18.4 °C 5.2 °C 1017.7 hPa ONO 13 km/h 30.6 km/h 42% 0.0 mm
17:24 18.3 °C 5.4 °C 1018.0 hPa NO 12.6 km/h 29 km/h 43% 0.0 mm
17:29 18 °C 5.3 °C 1018.0 hPa ONO 12.2 km/h 26.2 km/h 43.2% 0.0 mm
17:34 17.7 °C 5.5 °C 1018.0 hPa ONO 14.2 km/h 26.2 km/h 44.4% 0.0 mm
17:39 17.5 °C 5.7 °C 1018.3 hPa ONO 15.6 km/h 27.8 km/h 45.8% 0.0 mm
17:44 17.3 °C 6 °C 1018.3 hPa ONO 15.6 km/h 45.7 km/h 47.4% 0.0 mm
17:49 17.2 °C 6.3 °C 1018.3 hPa ONO 15.6 km/h 48.4 km/h 48.7% 0.0 mm
17:54 17.2 °C 6.3 °C 1018.5 hPa ONO 20.6 km/h 50.1 km/h 49% 0.0 mm
17:59 17.1 °C 6.3 °C 1018.5 hPa ONO 24.5 km/h 49.9 km/h 49% 0.0 mm
18:04 16.9 °C 6.1 °C 1018.5 hPa ONO 26.2 km/h 51.8 km/h 49% 0.0 mm
18:09 16.8 °C 6 °C 1018.8 hPa ONO 27.4 km/h 51.5 km/h 49% 0.0 mm
18:14 16.7 °C 6 °C 1018.8 hPa ONO 25.2 km/h 41.8 km/h 49.5% 0.0 mm
18:19 16.5 °C 6.1 °C 1018.8 hPa ONO 23.7 km/h 38.1 km/h 50% 0.0 mm
18:24 16.3 °C 5.8 °C 1019.4 hPa ONO 22.1 km/h 46 km/h 49.8% 0.0 mm
18:29 16.3 °C 5.5 °C 1019.4 hPa ONO 20.9 km/h 46.7 km/h 49% 0.0 mm
18:34 16.2 °C 5.7 °C 1019.4 hPa ONO 21.6 km/h 40.7 km/h 49.8% 0.0 mm
18:39 16.1 °C 5.7 °C 1020.0 hPa ONO 22.1 km/h 40.2 km/h 50% 0.0 mm
18:44 16 °C 5.3 °C 1020.0 hPa ONO 18.6 km/h 27.4 km/h 49% 0.0 mm
18:49 15.9 °C 5.2 °C 1020.0 hPa ONO 16.1 km/h 24.5 km/h 49% 0.0 mm
18:54 15.8 °C 5.1 °C 1020.3 hPa ONO 13.3 km/h 24.1 km/h 49% 0.0 mm
18:59 15.7 °C 5.2 °C 1020.3 hPa NO 11.1 km/h 30.6 km/h 49.4% 0.0 mm
19:04 15.6 °C 4.9 °C 1020.3 hPa ONO 12.3 km/h 41.2 km/h 49% 0.0 mm
19:09 15.6 °C 5.1 °C 1020.9 hPa ONO 13 km/h 41.8 km/h 49.7% 0.0 mm
19:14 15.4 °C 5 °C 1020.9 hPa ONO 16.5 km/h 42.6 km/h 50% 0.0 mm
19:19 15.4 °C 5 °C 1020.9 hPa ONO 19 km/h 41.8 km/h 50% 0.0 mm
19:24 15.3 °C 4.9 °C 1020.9 hPa ONO 19 km/h 33.8 km/h 50% 0.0 mm
19:29 15.2 °C 4.8 °C 1020.7 hPa ONO 19 km/h 42.6 km/h 50% 0.0 mm
19:34 15.2 °C 4.8 °C 1020.7 hPa ONO 21.1 km/h 42.6 km/h 50% 0.0 mm
19:39 15 °C 4.8 °C 1020.9 hPa ONO 22.5 km/h 37 km/h 50.6% 0.0 mm
19:44 14.8 °C 4.8 °C 1020.9 hPa ONO 23 km/h 48.1 km/h 51% 0.0 mm
19:49 14.7 °C 4.7 °C 1020.9 hPa ONO 23.3 km/h 48.3 km/h 51% 0.0 mm
19:54 14.6 °C 4.5 °C 1021.1 hPa ONO 23.5 km/h 41.2 km/h 51% 0.0 mm
19:59 14.4 °C 4.4 °C 1021.1 hPa ONO 23.7 km/h 41.8 km/h 51% 0.0 mm
20:04 14.3 °C 4.3 °C 1021.1 hPa ONO 22 km/h 42.6 km/h 51% 0.0 mm
20:09 14.3 °C 4.5 °C 1021.4 hPa ONO 20.9 km/h 41.8 km/h 51.9% 0.0 mm
20:14 14.2 °C 4.5 °C 1021.4 hPa ONO 19.3 km/h 34.3 km/h 52% 0.0 mm
20:19 14.1 °C 4.4 °C 1021.4 hPa ONO 18 km/h 38.9 km/h 52% 0.0 mm
20:24 14.1 °C 4.5 °C 1021.5 hPa ONO 17.1 km/h 38.6 km/h 52.3% 0.0 mm
20:29 14 °C 4.6 °C 1021.5 hPa NO 16.4 km/h 29.6 km/h 53% 0.0 mm
20:34 13.9 °C 4.4 °C 1021.5 hPa NE 13.8 km/h 29 km/h 53% 0.0 mm
20:39 13.8 °C 4.4 °C 1021.8 hPa NO 11.9 km/h 18.5 km/h 53% 0.0 mm
20:44 13.8 °C 4.4 °C 1021.8 hPa NNE 9 km/h 19.3 km/h 53.1% 0.0 mm
20:49 13.8 °C 4.7 °C 1021.8 hPa North 6.9 km/h 19.3 km/h 54% 0.0 mm
20:54 13.7 °C 4.6 °C 1022.0 hPa SO 5.8 km/h 14.5 km/h 54% 0.0 mm
20:59 13.7 °C 4.6 °C 1022.0 hPa Este 5 km/h 16.4 km/h 54% 0.0 mm
21:04 13.7 °C 4.5 °C 1022.0 hPa ESE 7 km/h 20.9 km/h 54% 0.0 mm
21:09 13.6 °C 4.4 °C 1022.2 hPa ESE 8.4 km/h 22.2 km/h 54% 0.0 mm
21:14 13.7 °C 4.5 °C 1022.2 hPa ESE 9.5 km/h 22.5 km/h 54% 0.0 mm
21:19 13.7 °C 4.6 °C 1022.2 hPa Sur 10.3 km/h 20.4 km/h 54% 0.0 mm
21:24 13.8 °C 4.4 °C 1022.5 hPa SO 10.1 km/h 20.9 km/h 53% 0.0 mm
21:29 13.8 °C 4.4 °C 1022.5 hPa NO 10 km/h 16.1 km/h 53% 0.0 mm
21:34 13.8 °C 4.4 °C 1022.5 hPa OSO 8.2 km/h 21.7 km/h 53% 0.0 mm
21:39 13.8 °C 4.4 °C 1022.5 hPa ONO 6.9 km/h 32.3 km/h 53% 0.0 mm
21:44 13.8 °C 4.2 °C 1022.4 hPa Oeste 11.5 km/h 33.8 km/h 52.2% 0.0 mm
21:49 13.8 °C 4.1 °C 1022.4 hPa Oeste 14.8 km/h 32.2 km/h 52% 0.0 mm
21:54 13.8 °C 4.1 °C 1022.8 hPa ONO 12.7 km/h 22.2 km/h 52% 0.0 mm
21:59 13.8 °C 4.1 °C 1022.8 hPa ONO 11.1 km/h 22.5 km/h 52% 0.0 mm
22:04 13.8 °C 4.1 °C 1022.8 hPa Oeste 10.4 km/h 20.9 km/h 52% 0.0 mm
22:09 13.8 °C 4.1 °C 1022.9 hPa Oeste 10 km/h 20.9 km/h 52% 0.0 mm
22:14 13.7 °C 4 °C 1022.9 hPa Oeste 11.2 km/h 26.2 km/h 52% 0.0 mm
22:19 13.7 °C 4 °C 1022.9 hPa ONO 12.2 km/h 25.7 km/h 52% 0.0 mm
22:24 13.7 °C 4 °C 1022.9 hPa ONO 12.2 km/h 24.1 km/h 52% 0.0 mm
22:29 13.6 °C 3.9 °C 1022.9 hPa ONO 12.2 km/h 22.5 km/h 52% 0.0 mm
22:34 13.7 °C 4 °C 1022.9 hPa ONO 12.7 km/h 22.5 km/h 52% 0.0 mm
22:39 13.6 °C 3.9 °C 1023.2 hPa ONO 13 km/h 20.9 km/h 52% 0.0 mm
22:44 13.5 °C 3.9 °C 1023.2 hPa ONO 11.5 km/h 20.9 km/h 52.4% 0.0 mm
22:49 13.3 °C 3.9 °C 1023.2 hPa ONO 10.3 km/h 27 km/h 53% 0.0 mm
22:54 13.4 °C 3.9 °C 1023.2 hPa ONO 12.9 km/h 29.6 km/h 52.8% 0.0 mm
22:59 13.4 °C 3.9 °C 1023.1 hPa ONO 14.8 km/h 29.8 km/h 52.7% 0.0 mm
23:04 13.4 °C 3.8 °C 1023.1 hPa ONO 16.7 km/h 30.6 km/h 52.1% 0.0 mm
23:09 13.3 °C 3.8 °C 1023.1 hPa ONO 18 km/h 31.7 km/h 52.6% 0.0 mm
23:14 13.5 °C 3.8 °C 1023.1 hPa ONO 18 km/h 32.2 km/h 52% 0.0 mm
23:19 13.4 °C 3.7 °C 1023.1 hPa ONO 18 km/h 30.6 km/h 52% 0.0 mm
23:24 13.5 °C 3.7 °C 1023.1 hPa ONO 17.6 km/h 38.9 km/h 51.4% 0.0 mm
23:29 13.6 °C 3.7 °C 1023.0 hPa ONO 17.2 km/h 38.6 km/h 51% 0.0 mm
23:34 13.4 °C 3.5 °C 1023.0 hPa ONO 18.7 km/h 34.3 km/h 51% 0.0 mm
23:39 13.4 °C 3.4 °C 1023.0 hPa ONO 19.8 km/h 37 km/h 51% 0.0 mm
23:44 13.3 °C 3.7 °C 1022.9 hPa ONO 21.9 km/h 38.9 km/h 51.9% 0.0 mm
23:49 13.2 °C 3.6 °C 1022.9 hPa ONO 23.3 km/h 39.6 km/h 52% 0.0 mm
23:54 13.2 °C 3.5 °C 1022.9 hPa ONO 22.6 km/h 40.2 km/h 52% 0.0 mm
23:59 13.1 °C 3.4 °C 1022.9 hPa ONO 22.1 km/h 35.9 km/h 52% 0.0 mm
Murcia-Puente Tocinos, España
Compliments of Weather Underground - 3.25 mb

La estación de MeteoMurcia.com, publica sus datos en los siguientes proyectos:

Weather Underground PWS IMURCIAP2 Meteoclimatic www.awekas.at

W3Counter
Web Analytics